Impacts METAR Board INFO
IDs:

KLAS - Las Vegas/McCarran I, NV, US

Updated at: 2023 UTC 18 Dec 2017
Potential Impact None Slight Moderate High
Time18/08Z 18/09Z 18/10Z 18/11Z 18/12Z 18/13Z 18/14Z 18/15Z 18/16Z 18/17Z 18/18Z 18/19Z 18/20Z
VIS10 10 10 10 10 10 10 10 10 10 10 10 10
CIG-- -- -- -- -- -- -- -- -- -- -- -- --
CoverFEWFEWFEWFEWFEWFEWFEWSCTSCTFEWFEWFEWSCT
FltCatVFRVFRVFRVFRVFRVFRVFRVFRVFRVFRVFRVFRVFR
WX--------------------------
WDir2060035020026024002002500500
WSpd11 8 0 5 4 3 3 3 3 4 0 3 3
WGst-- -- -- -- -- -- -- -- -- -- -- -- --
Raw hourly METARs
KLAS 180756Z 02011KT 10SM FEW250 09/M09 A3017 RMK AO2 SLP213 T00941094 401390083
KLAS 180856Z 06008KT 10SM FEW250 08/M08 A3017 RMK AO2 SLP214 T00781078 51005
KLAS 180956Z 00000KT 10SM FEW250 06/M09 A3018 RMK AO2 SLP220 T00611089
KLAS 181056Z 35005KT 10SM FEW250 07/M09 A3019 RMK AO2 SLP221 T00671089
KLAS 181156Z 20004KT 10SM FEW250 04/M09 A3017 RMK AO2 SLP218 T00441089 10094 20044 50002
KLAS 181256Z 26003KT 10SM FEW250 03/M09 A3019 RMK AO2 SLP226 T00331089
KLAS 181356Z 24003KT 10SM FEW250 04/M09 A3021 RMK AO2 SLP232 T00391089
KLAS 181456Z VRB03KT 10SM SCT250 04/M09 A3023 RMK AO2 SLP237 T00391089 51016
KLAS 181556Z 20003KT 10SM SCT250 06/M09 A3024 RMK AO2 SLP240 T00561089
KLAS 181656Z 25004KT 10SM FEW250 08/M08 A3026 RMK AO2 SLP244 T00831083
KLAS 181756Z 00000KT 10SM FEW250 11/M09 A3027 RMK AO2 SLP250 T01061094 10106 20033 53015
KLAS 181856Z 05003KT 10SM FEW250 12/M09 A3025 RMK AO2 SLP242 T01171094
KLAS 181956Z VRB03KT 10SM SCT250 12/M09 A3021 RMK AO2 SLP227 T01221094